Time;durP1;ratioP1;P1;durP2;ratioP2;P2;SDS_P1;SDS_P2;PMS_P1;PMS_P2;Temp;Humidity;BMP_temperature;BMP_pressure;BME280_temperature;BME280_humidity;BME280_pressure;Samples;Min_cycle;Max_cycle;Signal;HPM_P1;HPM_P2
2023/07/15 00:01:36;;;;;;;5.80;3.85;;;19.00;90.20;;;;;;4987285;28;20018;-62
2023/07/15 00:04:03;;;;;;;7.28;3.75;;;19.00;89.90;;;;;;4987259;28;20057;-63
2023/07/15 00:06:28;;;;;;;6.90;3.55;;;18.90;89.90;;;;;;4987214;28;20083;-62
2023/07/15 00:08:55;;;;;;;4.32;3.35;;;18.90;90.10;;;;;;4987150;28;20365;-62
2023/07/15 00:11:27;;;;;;;9.63;3.33;;;18.80;90.20;;;;;;4986919;28;20105;-62
2023/07/15 00:13:53;;;;;;;7.75;3.97;;;18.80;90.30;;;;;;4987271;28;20019;-63
2023/07/15 00:16:19;;;;;;;5.93;3.72;;;18.70;90.80;;;;;;4987613;28;20027;-62
2023/07/15 00:18:45;;;;;;;4.50;3.58;;;18.60;91.10;;;;;;4986867;28;20072;-62
2023/07/15 00:21:20;;;;;;;4.97;3.70;;;18.60;90.90;;;;;;4986714;28;20105;-63
2023/07/15 00:23:46;;;;;;;14.00;4.07;;;18.50;90.50;;;;;;4987207;28;20026;-63
2023/07/15 00:26:11;;;;;;;7.70;3.85;;;18.50;90.50;;;;;;4987176;28;20380;-63
2023/07/15 00:28:37;;;;;;;4.85;3.53;;;18.50;91.10;;;;;;4979099;28;20034;-62
2023/07/15 00:31:13;;;;;;;5.13;3.70;;;18.50;90.90;;;;;;4986440;28;20030;-63
2023/07/15 00:33:40;;;;;;;4.05;3.42;;;18.40;90.90;;;;;;4986918;28;20071;-63
2023/07/15 00:36:06;;;;;;;5.78;3.35;;;18.50;90.00;;;;;;4986851;28;20023;-63
2023/07/15 00:38:33;;;;;;;6.35;3.72;;;18.50;90.10;;;;;;4984625;28;20496;-63
2023/07/15 00:40:59;;;;;;;8.75;4.03;;;18.50;90.40;;;;;;4986773;28;20022;-63
2023/07/15 00:43:58;;;;;;;6.90;3.72;;;18.50;90.10;;;;;;4987182;28;20182;-63
2023/07/15 00:46:31;;;;;;;4.93;3.60;;;18.50;90.70;;;;;;4987465;28;20026;-63
2023/07/15 00:49:06;;;;;;;7.72;3.85;;;18.40;91.30;;;;;;4985780;28;20114;-63
2023/07/15 00:51:35;;;;;;;7.28;3.75;;;18.40;91.00;;;;;;4986622;28;20212;-63
2023/07/15 00:54:03;;;;;;;7.25;4.53;;;18.30;91.00;;;;;;4986975;28;20031;-63
2023/07/15 00:56:31;;;;;;;5.88;4.55;;;18.30;91.50;;;;;;4986949;28;20046;-63
2023/07/15 00:58:58;;;;;;;5.57;3.60;;;18.20;92.00;;;;;;4986982;28;20359;-63
2023/07/15 01:01:23;;;;;;;11.43;4.20;;;18.20;92.40;;;;;;4993759;28;20032;-63
2023/07/15 01:03:51;;;;;;;6.20;4.50;;;18.10;92.20;;;;;;5028598;28;20044;-63
2023/07/15 01:06:16;;;;;;;6.32;3.72;;;18.00;92.70;;;;;;5028889;28;20036;-63
2023/07/15 01:08:42;;;;;;;9.57;4.47;;;18.00;93.30;;;;;;5027174;28;20114;-63
2023/07/15 01:11:10;;;;;;;5.43;3.70;;;17.90;93.60;;;;;;5033190;28;20026;-63
2023/07/15 01:13:35;;;;;;;5.45;3.90;;;17.80;94.10;;;;;;5026439;28;20023;-63
2023/07/15 01:16:01;;;;;;;10.05;3.53;;;17.80;93.70;;;;;;5001028;28;20094;-62
2023/07/15 01:18:28;;;;;;;6.45;4.43;;;17.80;94.20;;;;;;4990130;28;20054;-62
2023/07/15 01:20:58;;;;;;;6.30;4.15;;;17.70;94.50;;;;;;4989870;28;20023;-62
2023/07/15 01:23:27;;;;;;;6.93;3.55;;;17.70;94.70;;;;;;4990124;28;20357;-61
2023/07/15 10:08:20;;;;;;;2.50;1.52;;;39.10;45.40;;;;;;5054785;28;20730;-48
2023/07/15 10:10:46;;;;;;;3.58;1.50;;;39.40;46.20;;;;;;5045215;28;20021;-47
2023/07/15 10:13:13;;;;;;;4.93;1.60;;;40.10;46.40;;;;;;5046065;28;20029;-48
2023/07/15 10:15:39;;;;;;;2.67;1.30;;;40.20;46.70;;;;;;5044931;28;20585;-49
2023/07/15 10:18:13;;;;;;;2.20;1.58;;;40.40;45.10;;;;;;5046399;28;20024;-46
2023/07/15 10:20:45;;;;;;;5.85;2.05;;;40.90;45.60;;;;;;5046342;28;20401;-49
2023/07/15 10:23:11;;;;;;;3.17;1.30;;;41.40;44.30;;;;;;5044710;28;20029;-50
2023/07/15 10:25:40;;;;;;;1.13;1.02;;;40.40;43.70;;;;;;5046299;28;20044;-47
2023/07/15 10:28:14;;;;;;;3.88;1.15;;;40.00;44.40;;;;;;5046224;28;20028;-49
2023/07/15 10:31:13;;;;;;;1.75;1.27;;;38.90;44.30;;;;;;5046214;28;20025;-49
2023/07/15 10:33:58;;;;;;;3.50;1.23;;;37.60;46.00;;;;;;5046094;28;20031;-45
2023/07/15 10:36:40;;;;;;;2.45;1.50;;;36.50;47.00;;;;;;5046459;28;20025;-45
2023/07/15 10:39:10;;;;;;;1.50;1.40;;;35.70;47.90;;;;;;5045615;28;20363;-48
2023/07/15 10:41:41;;;;;;;4.70;1.70;;;35.20;48.30;;;;;;5043999;28;20242;-47
2023/07/15 10:44:16;;;;;;;2.65;1.70;;;34.50;49.70;;;;;;5045791;28;20444;-45
2023/07/15 10:46:50;;;;;;;2.00;1.60;;;34.00;50.40;;;;;;5045706;28;20111;-46
2023/07/15 10:49:17;;;;;;;4.95;2.20;;;33.70;51.70;;;;;;5044431;28;20028;-47
2023/07/15 10:51:44;;;;;;;4.75;1.92;;;33.40;52.10;;;;;;5045588;28;20017;-45
2023/07/15 10:54:09;;;;;;;2.38;1.80;;;33.20;52.70;;;;;;5045965;28;20033;-47
2023/07/15 10:56:35;;;;;;;2.05;1.80;;;32.90;53.00;;;;;;5046248;28;20082;-44
2023/07/15 10:59:01;;;;;;;2.08;1.80;;;32.50;54.30;;;;;;5046089;28;20095;-46
2023/07/15 11:01:26;;;;;;;3.45;2.05;;;32.30;54.40;;;;;;5045129;28;20051;-46
2023/07/15 11:03:52;;;;;;;5.00;2.38;;;31.90;55.50;;;;;;5045508;28;20104;-48
2023/07/15 11:06:17;;;;;;;5.68;2.15;;;31.60;55.80;;;;;;5045140;28;20112;-46
2023/07/15 11:08:44;;;;;;;3.58;1.92;;;31.50;56.70;;;;;;5045384;28;20087;-47
2023/07/15 11:11:10;;;;;;;5.47;2.42;;;31.40;57.20;;;;;;5044925;28;20075;-48
2023/07/15 11:13:38;;;;;;;2.67;2.40;;;31.20;57.00;;;;;;5045609;28;20014;-49
2023/07/15 11:16:04;;;;;;;4.60;2.40;;;30.90;57.90;;;;;;5045368;28;20473;-45
2023/07/15 11:18:30;;;;;;;4.60;2.20;;;30.70;58.30;;;;;;5038287;28;20018;-47
2023/07/15 11:21:01;;;;;;;4.63;2.67;;;30.50;59.00;;;;;;5031746;28;20502;-47
2023/07/15 11:23:30;;;;;;;4.50;2.97;;;30.30;59.60;;;;;;5031809;28;20021;-44
2023/07/15 11:25:57;;;;;;;5.10;2.80;;;30.20;60.20;;;;;;5030500;28;20044;-44
2023/07/15 11:28:23;;;;;;;6.68;2.63;;;30.10;61.00;;;;;;5030644;28;20022;-45
2023/07/15 11:30:48;;;;;;;4.22;2.28;;;29.90;61.00;;;;;;5031605;28;20026;-48
2023/07/15 11:33:15;;;;;;;4.10;2.45;;;29.90;61.50;;;;;;5030990;28;20497;-45
2023/07/15 11:35:42;;;;;;;8.77;2.60;;;29.80;62.60;;;;;;5024803;28;20021;-47
2023/07/15 11:38:12;;;;;;;4.13;2.13;;;29.60;64.40;;;;;;5031439;28;20536;-49
2023/07/15 11:40:53;;;;;;;3.58;2.42;;;29.30;66.50;;;;;;5029206;28;20516;-45
2023/07/15 11:43:21;;;;;;;6.50;2.90;;;28.80;68.50;;;;;;5029426;28;20048;-44
2023/07/15 11:45:46;;;;;;;7.05;2.47;;;28.40;70.40;;;;;;5031558;28;20359;-47
2023/07/15 11:48:12;;;;;;;3.47;2.30;;;28.20;71.60;;;;;;5031431;28;20033;-47
2023/07/15 11:50:38;;;;;;;3.08;2.78;;;28.10;72.60;;;;;;5030642;28;20022;-50
2023/07/15 11:53:03;;;;;;;3.95;2.72;;;28.00;73.80;;;;;;5031021;28;20021;-48
2023/07/15 11:55:30;;;;;;;4.95;2.78;;;27.90;75.60;;;;;;5046489;28;20029;-45
2023/07/15 11:57:56;;;;;;;3.65;2.40;;;27.60;75.50;;;;;;5031378;28;20444;-44
2023/07/15 12:00:33;;;;;;;4.18;2.50;;;27.50;76.00;;;;;;5031073;28;20104;-48
2023/07/15 12:03:06;;;;;;;3.80;2.40;;;27.40;76.70;;;;;;5030754;28;20025;-47
2023/07/15 12:05:36;;;;;;;3.88;2.30;;;27.30;76.70;;;;;;5031035;28;20025;-47
2023/07/15 12:08:11;;;;;;;5.85;2.75;;;27.30;78.10;;;;;;5046227;28;20452;-48
2023/07/15 12:10:49;;;;;;;2.60;2.40;;;27.30;77.30;;;;;;5031052;28;20017;-45
2023/07/15 12:13:14;;;;;;;7.32;2.80;;;27.20;77.60;;;;;;5013328;28;20022;-48
2023/07/15 12:15:40;;;;;;;5.28;3.10;;;27.30;77.20;;;;;;5031038;28;20028;-47
2023/07/15 12:18:05;;;;;;;4.72;2.47;;;27.40;77.80;;;;;;5030733;28;20417;-46
2023/07/15 12:20:31;;;;;;;4.28;2.60;;;27.40;77.70;;;;;;5030696;28;20041;-45
2023/07/15 12:22:56;;;;;;;4.20;2.90;;;27.20;78.20;;;;;;5030504;28;20021;-47
2023/07/15 12:25:24;;;;;;;3.53;2.63;;;27.20;79.40;;;;;;5030662;28;20037;-46
2023/07/15 12:27:49;;;;;;;3.97;2.40;;;27.00;79.10;;;;;;5030588;28;20017;-45
2023/07/15 12:30:15;;;;;;;3.13;2.35;;;27.00;79.30;;;;;;5029647;28;20078;-50
2023/07/15 12:32:41;;;;;;;4.97;2.65;;;26.80;79.70;;;;;;5029588;28;20025;-45
2023/07/15 12:35:07;;;;;;;4.82;3.00;;;26.70;79.80;;;;;;5029223;28;20028;-44
2023/07/15 12:37:32;;;;;;;2.70;2.50;;;26.70;80.40;;;;;;5027971;28;20489;-48
2023/07/15 12:39:58;;;;;;;2.92;2.08;;;26.50;80.50;;;;;;5028808;28;20084;-46
2023/07/15 12:42:23;;;;;;;4.25;2.60;;;26.40;80.80;;;;;;5028675;28;20030;-47
2023/07/15 12:44:50;;;;;;;3.65;2.90;;;26.40;80.20;;;;;;5028810;28;20410;-49
2023/07/15 12:47:15;;;;;;;3.38;2.33;;;26.40;80.40;;;;;;5028856;28;20053;-46
2023/07/15 12:49:41;;;;;;;5.47;2.80;;;26.30;80.80;;;;;;5030124;28;20056;-46
2023/07/15 12:52:07;;;;;;;3.65;2.50;;;26.20;80.80;;;;;;5029868;28;20028;-47
2023/07/15 12:54:33;;;;;;;3.97;2.55;;;26.20;81.20;;;;;;5027959;28;20032;-46
2023/07/15 12:56:58;;;;;;;5.75;2.53;;;26.10;82.00;;;;;;5030445;28;20028;-45
2023/07/15 12:59:24;;;;;;;4.50;2.40;;;26.00;81.60;;;;;;5030306;28;20033;-44
2023/07/15 13:01:49;;;;;;;3.85;2.63;;;26.00;82.30;;;;;;5029943;28;20480;-46
2023/07/15 13:04:15;;;;;;;3.50;2.58;;;25.90;82.20;;;;;;5045464;28;20017;-44
2023/07/15 13:06:41;;;;;;;4.20;2.55;;;25.90;83.40;;;;;;5030120;28;20292;-44
2023/07/15 13:09:06;;;;;;;4.45;2.65;;;25.70;84.30;;;;;;5029743;28;20024;-44
2023/07/15 13:11:32;;;;;;;5.13;2.70;;;25.70;86.30;;;;;;5029267;28;20030;-46
2023/07/15 13:13:57;;;;;;;6.43;2.60;;;25.60;87.00;;;;;;5029701;28;20021;-45
2023/07/15 13:16:23;;;;;;;4.15;2.65;;;25.40;88.80;;;;;;5029851;28;20080;-44
2023/07/15 13:18:48;;;;;;;5.22;2.63;;;25.40;86.70;;;;;;5045099;28;20428;-47
2023/07/15 13:21:14;;;;;;;2.45;2.25;;;25.40;87.50;;;;;;5029247;28;20053;-47
2023/07/15 13:23:39;;;;;;;4.40;2.63;;;25.40;88.70;;;;;;5029840;28;20026;-47
2023/07/15 13:26:05;;;;;;;5.68;2.90;;;25.40;87.40;;;;;;5030120;28;20476;-45
2023/07/15 13:28:30;;;;;;;2.47;2.15;;;25.40;87.40;;;;;;5029489;28;20057;-46
2023/07/15 13:30:56;;;;;;;2.92;2.58;;;25.40;88.50;;;;;;5029349;28;20025;-45
2023/07/15 13:33:21;;;;;;;4.03;2.78;;;25.40;90.40;;;;;;5029555;28;20029;-45
2023/07/15 13:35:47;;;;;;;2.85;2.38;;;25.40;90.20;;;;;;5029574;28;20063;-45
2023/07/15 13:38:13;;;;;;;4.43;2.47;;;25.40;90.30;;;;;;5029376;28;20430;-45
2023/07/15 13:40:38;;;;;;;2.83;2.55;;;25.60;90.10;;;;;;5029558;28;20091;-46
2023/07/15 13:43:04;;;;;;;3.38;2.95;;;25.70;90.80;;;;;;5028767;28;20452;-49
2023/07/15 13:45:29;;;;;;;4.35;2.50;;;25.70;90.40;;;;;;5029334;28;20490;-46
2023/07/15 13:47:55;;;;;;;3.03;2.50;;;25.80;91.30;;;;;;5029268;28;20029;-46
2023/07/15 13:50:20;;;;;;;3.45;2.72;;;25.80;90.70;;;;;;5029405;28;20083;-46
2023/07/15 13:52:46;;;;;;;3.55;2.78;;;25.90;91.20;;;;;;5028902;28;20087;-45
2023/07/15 13:55:11;;;;;;;4.38;2.55;;;25.90;91.10;;;;;;5029107;28;20028;-45
2023/07/15 13:57:37;;;;;;;5.53;2.45;;;25.90;91.00;;;;;;5029185;28;20493;-44
2023/07/15 14:00:04;;;;;;;3.22;2.88;;;25.80;90.50;;;;;;5029201;28;20410;-45
2023/07/15 14:02:29;;;;;;;2.78;2.22;;;25.70;90.40;;;;;;5028950;28;20036;-44
2023/07/15 14:04:55;;;;;;;3.58;2.63;;;25.70;90.70;;;;;;5029331;28;20030;-47
2023/07/15 14:07:20;;;;;;;4.30;2.60;;;25.60;90.20;;;;;;5029148;28;20509;-45
2023/07/15 14:09:46;;;;;;;3.00;2.70;;;25.60;89.80;;;;;;5044578;28;20017;-46
2023/07/15 14:12:11;;;;;;;2.63;2.42;;;25.40;89.70;;;;;;5028728;28;20101;-45
2023/07/15 14:14:37;;;;;;;3.03;2.50;;;25.30;90.00;;;;;;5029296;28;20021;-44
2023/07/15 14:17:03;;;;;;;4.45;2.60;;;25.40;90.00;;;;;;5027738;28;20029;-45
2023/07/15 14:19:28;;;;;;;3.95;2.47;;;25.40;90.10;;;;;;5029258;28;20036;-48
2023/07/15 14:21:54;;;;;;;2.38;2.17;;;25.40;89.80;;;;;;5028610;28;20474;-47
2023/07/15 14:24:19;;;;;;;2.78;2.50;;;25.60;89.90;;;;;;5028948;28;20096;-49
2023/07/15 14:26:45;;;;;;;5.80;3.15;;;25.80;90.20;;;;;;5028929;28;20024;-44
2023/07/15 14:29:10;;;;;;;3.83;3.00;;;25.90;89.90;;;;;;5028876;28;20026;-45
2023/07/15 14:31:37;;;;;;;2.65;2.45;;;26.00;89.00;;;;;;5028736;28;20026;-45
2023/07/15 14:34:03;;;;;;;3.80;2.55;;;26.10;88.10;;;;;;5029295;28;20473;-45
2023/07/15 14:36:30;;;;;;;3.67;2.63;;;26.20;87.40;;;;;;5029304;28;20021;-46
2023/07/15 14:38:56;;;;;;;3.15;2.30;;;26.40;87.20;;;;;;5028517;28;20018;-45
2023/07/15 14:41:21;;;;;;;4.15;2.60;;;26.70;86.50;;;;;;5027702;28;20086;-45
2023/07/15 14:43:47;;;;;;;2.47;2.15;;;27.00;85.80;;;;;;5028574;28;20021;-45
2023/07/15 14:46:12;;;;;;;4.18;2.47;;;27.30;81.80;;;;;;5028734;28;20441;-45
2023/07/15 14:48:39;;;;;;;2.45;2.25;;;27.50;83.30;;;;;;5028756;28;20462;-46
2023/07/15 14:51:05;;;;;;;5.13;2.10;;;27.50;81.90;;;;;;5028359;28;20083;-47
2023/07/15 14:53:31;;;;;;;4.60;2.38;;;27.80;82.70;;;;;;5029432;28;20113;-45
2023/07/15 14:55:57;;;;;;;4.47;2.10;;;27.90;83.20;;;;;;5032644;28;20029;-45
2023/07/15 14:58:23;;;;;;;2.47;2.28;;;27.90;81.00;;;;;;5032269;28;20025;-45
2023/07/15 15:00:48;;;;;;;10.18;2.53;;;27.90;81.00;;;;;;5032112;28;20532;-44
2023/07/15 15:03:15;;;;;;;2.35;2.15;;;27.90;81.20;;;;;;5047072;28;20037;-45
2023/07/15 15:05:41;;;;;;;2.55;2.35;;;27.80;82.60;;;;;;5032287;28;20510;-45
2023/07/15 15:08:07;;;;;;;3.25;2.28;;;27.80;81.40;;;;;;5047405;28;20060;-45
2023/07/15 15:10:32;;;;;;;5.70;2.30;;;28.20;83.60;;;;;;5031685;28;20249;-44
2023/07/15 15:12:58;;;;;;;2.90;2.20;;;28.40;81.60;;;;;;5029907;28;20071;-47
2023/07/15 15:15:23;;;;;;;2.80;2.13;;;28.80;82.00;;;;;;5031382;28;20064;-46
2023/07/15 15:17:49;;;;;;;2.35;1.80;;;29.00;79.00;;;;;;5031246;28;20512;-45
2023/07/15 15:20:15;;;;;;;2.25;1.60;;;29.00;78.20;;;;;;5046341;28;20037;-46
2023/07/15 15:22:40;;;;;;;3.95;2.20;;;29.00;77.60;;;;;;5030473;28;20478;-46
2023/07/15 15:25:06;;;;;;;2.58;1.98;;;29.20;77.00;;;;;;5027049;28;20048;-45
2023/07/15 15:27:32;;;;;;;2.88;2.00;;;29.00;77.00;;;;;;5024215;28;20025;-45
2023/07/15 15:29:57;;;;;;;2.85;2.10;;;29.10;77.90;;;;;;5028550;28;20026;-45
2023/07/15 15:32:23;;;;;;;2.85;2.05;;;29.10;78.40;;;;;;5027735;28;20025;-47
2023/07/15 15:34:48;;;;;;;2.97;2.55;;;29.00;77.00;;;;;;5030135;28;20322;-46
2023/07/15 15:37:14;;;;;;;5.20;2.45;;;29.10;77.50;;;;;;5029618;28;20069;-46
2023/07/15 15:39:41;;;;;;;3.92;2.60;;;29.30;78.00;;;;;;5030045;28;20027;-49
2023/07/15 15:42:06;;;;;;;2.85;2.33;;;29.10;77.30;;;;;;5029133;28;20446;-46
2023/07/15 15:44:32;;;;;;;3.10;2.15;;;29.10;78.00;;;;;;5044851;28;20021;-46
2023/07/15 15:46:58;;;;;;;5.22;2.53;;;29.10;78.00;;;;;;5044762;28;20113;-47
2023/07/15 15:49:24;;;;;;;5.35;2.70;;;29.00;77.70;;;;;;5029606;28;20104;-46
2023/07/15 15:51:49;;;;;;;3.13;2.05;;;28.90;78.60;;;;;;5028943;28;20105;-45
2023/07/15 15:54:15;;;;;;;2.85;2.33;;;28.80;78.60;;;;;;5028037;28;20028;-45
2023/07/15 15:56:41;;;;;;;3.53;2.60;;;28.70;79.30;;;;;;5033789;28;20094;-49
2023/07/15 15:59:06;;;;;;;3.40;2.50;;;28.70;79.70;;;;;;5049300;28;20082;-45
2023/07/15 16:01:32;;;;;;;3.42;2.42;;;28.70;79.20;;;;;;5029287;28;20037;-49
2023/07/15 16:03:57;;;;;;;3.33;2.17;;;28.60;79.40;;;;;;5029677;28;20025;-47
2023/07/15 16:06:23;;;;;;;3.13;2.22;;;28.60;79.10;;;;;;5029715;28;20037;-48
2023/07/15 16:08:50;;;;;;;3.50;2.33;;;28.60;79.40;;;;;;5029851;28;20206;-48
2023/07/15 16:11:17;;;;;;;3.70;2.58;;;28.70;79.00;;;;;;5029349;28;20048;-49
2023/07/15 16:13:42;;;;;;;5.88;2.58;;;28.80;78.50;;;;;;5029929;28;20033;-47
2023/07/15 16:16:08;;;;;;;5.07;2.90;;;28.60;78.40;;;;;;5028912;28;20029;-46
2023/07/15 16:18:33;;;;;;;3.63;2.75;;;28.60;78.60;;;;;;5030152;28;20022;-48
2023/07/15 16:20:59;;;;;;;2.60;2.40;;;28.60;79.10;;;;;;5022685;28;20021;-46
2023/07/15 16:23:24;;;;;;;3.72;2.85;;;28.60;79.50;;;;;;5028194;28;20393;-45
2023/07/15 16:25:50;;;;;;;3.40;2.70;;;28.50;78.70;;;;;;5029544;28;20029;-46
2023/07/15 16:28:16;;;;;;;3.75;2.85;;;28.50;78.80;;;;;;5028910;28;20033;-45
2023/07/15 16:30:41;;;;;;;3.03;2.72;;;28.40;78.40;;;;;;5025040;28;20588;-46
2023/07/15 16:33:07;;;;;;;3.03;2.47;;;28.30;79.00;;;;;;5025611;28;20036;-46
2023/07/15 16:35:33;;;;;;;3.95;2.65;;;28.00;79.20;;;;;;5043740;28;20052;-45
2023/07/15 16:37:59;;;;;;;3.17;2.47;;;27.90;79.60;;;;;;5029469;28;20108;-46
2023/07/15 16:40:24;;;;;;;6.85;3.10;;;27.80;80.10;;;;;;5044151;28;20033;-45
2023/07/15 16:42:50;;;;;;;5.13;3.33;;;27.70;80.90;;;;;;5028779;28;20393;-46
2023/07/15 16:45:16;;;;;;;7.35;3.72;;;27.50;81.10;;;;;;5027835;28;20112;-45
2023/07/15 16:47:41;;;;;;;6.20;3.13;;;27.40;82.00;;;;;;5027431;28;20490;-45
2023/07/15 16:50:08;;;;;;;3.75;3.20;;;27.30;82.80;;;;;;5028886;28;20029;-48
2023/07/15 16:52:34;;;;;;;4.18;3.17;;;27.10;85.60;;;;;;5028443;28;20024;-46
2023/07/15 16:55:00;;;;;;;7.03;3.17;;;26.90;88.50;;;;;;5029343;28;20025;-48
2023/07/15 16:57:26;;;;;;;5.05;3.55;;;26.40;92.00;;;;;;5028925;28;20083;-46
2023/07/15 16:59:52;;;;;;;6.43;3.65;;;25.70;92.40;;;;;;5028896;28;20049;-46
2023/07/15 17:02:17;;;;;;;5.85;4.15;;;25.20;94.00;;;;;;5028588;28;20032;-47
2023/07/15 17:04:43;;;;;;;6.70;3.95;;;24.70;93.60;;;;;;5029096;28;20440;-47
2023/07/15 17:07:08;;;;;;;8.32;4.40;;;24.40;95.10;;;;;;5028911;28;20132;-49
2023/07/15 17:09:35;;;;;;;6.38;4.72;;;24.10;96.00;;;;;;5029189;28;20037;-46
2023/07/15 17:12:06;;;;;;;7.85;4.43;;;24.00;96.50;;;;;;5028268;28;20026;-46
2023/07/15 17:14:32;;;;;;;9.30;5.03;;;23.90;97.10;;;;;;5029103;28;20026;-45
2023/07/15 17:16:58;;;;;;;8.07;5.00;;;23.80;97.70;;;;;;5028804;28;20263;-45
2023/07/15 17:19:24;;;;;;;5.57;4.65;;;23.80;99.10;;;;;;5028851;28;20037;-48
2023/07/15 17:21:50;;;;;;;7.80;4.55;;;23.70;99.90;;;;;;5043675;28;20025;-47
2023/07/15 17:24:16;;;;;;;6.90;4.93;;;23.60;99.90;;;;;;5028310;28;20037;-47
2023/07/15 17:26:42;;;;;;;11.10;5.05;;;23.60;99.90;;;;;;5026614;28;20033;-47
2023/07/15 17:29:07;;;;;;;7.68;4.95;;;23.60;99.90;;;;;;5026970;28;20048;-48
2023/07/15 17:31:33;;;;;;;9.23;5.47;;;23.50;99.90;;;;;;5025914;28;20112;-50
2023/07/15 17:33:58;;;;;;;6.30;4.70;;;23.40;99.90;;;;;;5027433;28;20018;-50
2023/07/15 17:36:24;;;;;;;7.72;5.13;;;23.40;99.90;;;;;;5027594;28;20161;-48
2023/07/15 17:38:50;;;;;;;8.18;4.93;;;23.40;99.90;;;;;;5027882;28;20102;-48
2023/07/15 17:41:15;;;;;;;10.00;5.43;;;23.40;99.90;;;;;;5028861;28;20083;-48
2023/07/15 17:43:42;;;;;;;7.97;4.50;;;23.40;99.90;;;;;;5029486;28;20025;-46
2023/07/15 17:46:07;;;;;;;8.00;5.07;;;23.50;99.90;;;;;;5029247;28;20017;-48
2023/07/15 17:48:32;;;;;;;8.30;5.40;;;23.50;99.90;;;;;;5029047;28;20071;-47
2023/07/15 17:50:58;;;;;;;8.98;5.40;;;23.50;99.90;;;;;;5029100;28;20482;-48
2023/07/15 17:53:24;;;;;;;9.52;5.10;;;23.50;99.90;;;;;;5028958;28;20056;-48
2023/07/15 17:55:51;;;;;;;8.70;4.88;;;23.50;99.90;;;;;;5024621;28;20536;-47
2023/07/15 17:58:17;;;;;;;7.60;4.70;;;23.50;99.90;;;;;;5026311;28;20079;-47
2023/07/15 18:00:43;;;;;;;8.25;5.80;;;23.50;99.90;;;;;;5029124;28;20129;-46
2023/07/15 18:03:08;;;;;;;10.05;5.43;;;23.50;99.90;;;;;;5029033;28;20064;-47
2023/07/15 18:05:35;;;;;;;7.80;5.15;;;23.50;99.90;;;;;;5028511;28;20433;-44
2023/07/15 18:08:00;;;;;;;8.77;5.13;;;23.50;99.90;;;;;;5025849;28;20018;-45
2023/07/15 18:10:26;;;;;;;9.45;5.15;;;23.50;99.90;;;;;;5026121;28;20347;-45
2023/07/15 18:12:51;;;;;;;10.00;5.35;;;23.50;99.90;;;;;;5026606;28;20052;-45
2023/07/15 18:15:17;;;;;;;6.63;4.43;;;23.50;99.90;;;;;;5033363;28;20073;-45
2023/07/15 18:17:42;;;;;;;11.10;5.13;;;23.50;99.90;;;;;;5044034;28;20488;-48
2023/07/15 18:20:11;;;;;;;8.80;5.50;;;23.50;99.90;;;;;;5046502;28;20175;-45
2023/07/15 18:22:39;;;;;;;7.47;5.22;;;23.60;99.90;;;;;;5047751;28;20028;-47
2023/07/15 18:25:06;;;;;;;8.98;5.30;;;23.60;99.90;;;;;;5042706;28;20032;-45
2023/07/15 18:27:31;;;;;;;6.20;4.07;;;23.60;99.90;;;;;;5044308;28;20029;-45
2023/07/15 18:29:57;;;;;;;9.60;4.82;;;23.60;99.90;;;;;;5044541;28;20568;-46
2023/07/15 18:32:23;;;;;;;7.97;5.45;;;23.70;99.90;;;;;;5052145;28;20028;-44
2023/07/15 18:34:55;;;;;;;7.28;4.70;;;23.80;99.90;;;;;;5052557;28;20381;-46
2023/07/15 18:37:21;;;;;;;7.60;5.38;;;23.80;99.90;;;;;;5067734;28;20398;-45
2023/07/15 18:39:46;;;;;;;5.95;4.97;;;23.70;99.90;;;;;;5043176;28;20037;-44
2023/07/15 18:42:12;;;;;;;7.22;5.32;;;23.60;99.90;;;;;;5034305;28;20029;-45
2023/07/15 18:44:37;;;;;;;6.85;5.10;;;23.50;99.90;;;;;;5032895;28;20378;-45
2023/07/15 18:47:03;;;;;;;9.23;5.57;;;23.40;99.90;;;;;;5034089;28;20060;-45
2023/07/15 18:49:29;;;;;;;8.82;5.65;;;23.30;99.90;;;;;;5034410;28;20049;-44
2023/07/15 18:51:54;;;;;;;11.25;5.90;;;23.30;99.90;;;;;;5042774;28;20020;-45
2023/07/15 18:54:20;;;;;;;10.02;5.65;;;23.20;99.90;;;;;;5034783;28;20029;-45
2023/07/15 18:56:45;;;;;;;11.90;6.38;;;23.20;99.90;;;;;;5036573;28;20024;-45
2023/07/15 18:59:11;;;;;;;8.93;4.88;;;23.20;99.90;;;;;;5050591;28;20041;-45
2023/07/15 19:01:36;;;;;;;6.32;5.47;;;23.20;99.90;;;;;;5032051;28;20372;-45
2023/07/15 19:04:02;;;;;;;9.65;5.60;;;23.20;99.90;;;;;;5031548;28;20186;-44
2023/07/15 19:06:27;;;;;;;7.35;5.07;;;23.20;99.90;;;;;;5050285;28;20037;-44
2023/07/15 19:08:53;;;;;;;8.60;5.40;;;23.20;99.90;;;;;;5037197;28;20049;-47
2023/07/15 19:11:18;;;;;;;6.90;5.07;;;23.20;99.90;;;;;;5031704;28;20350;-46
2023/07/15 19:13:44;;;;;;;7.38;4.88;;;23.20;99.90;;;;;;5031818;28;20029;-45
2023/07/15 19:16:09;;;;;;;7.10;4.80;;;23.30;99.90;;;;;;5046603;28;20066;-45
2023/07/15 19:18:35;;;;;;;5.75;4.53;;;23.30;99.90;;;;;;5040317;28;20833;-45
2023/07/15 19:21:00;;;;;;;8.18;4.18;;;23.30;99.90;;;;;;5032208;28;20022;-45
2023/07/15 19:23:26;;;;;;;8.50;5.30;;;23.20;99.90;;;;;;5032094;28;20512;-44
2023/07/15 19:25:51;;;;;;;6.88;4.90;;;23.20;99.90;;;;;;5032292;28;20131;-45
2023/07/15 19:28:18;;;;;;;8.50;5.20;;;23.20;99.90;;;;;;5048435;28;20048;-44
2023/07/15 19:30:43;;;;;;;5.45;4.47;;;23.20;99.90;;;;;;5039118;28;20051;-46
2023/07/15 19:33:09;;;;;;;5.75;4.15;;;23.20;99.90;;;;;;5046769;28;20025;-45
2023/07/15 19:35:34;;;;;;;6.70;5.10;;;23.20;99.90;;;;;;5036761;28;20513;-45
2023/07/15 19:38:00;;;;;;;7.78;5.18;;;23.20;99.90;;;;;;5039125;28;20029;-46
2023/07/15 19:40:25;;;;;;;6.65;5.35;;;23.20;99.90;;;;;;5040577;28;20056;-44
2023/07/15 19:42:51;;;;;;;6.63;4.82;;;23.20;99.90;;;;;;5045583;28;20013;-45
2023/07/15 19:45:17;;;;;;;6.22;4.40;;;23.20;99.90;;;;;;5031516;28;20021;-46
2023/07/15 19:47:43;;;;;;;5.68;4.72;;;23.00;99.90;;;;;;5031089;28;20389;-44
2023/07/15 19:50:09;;;;;;;9.32;5.07;;;22.90;99.90;;;;;;5032816;28;20116;-48
2023/07/15 19:52:34;;;;;;;7.30;4.53;;;22.80;99.90;;;;;;5035616;28;20045;-45
2023/07/15 19:55:00;;;;;;;11.23;5.38;;;22.60;99.90;;;;;;5030978;28;20053;-45
2023/07/15 19:57:25;;;;;;;9.35;4.97;;;22.60;99.90;;;;;;5031207;28;20040;-47
2023/07/15 19:59:51;;;;;;;7.32;5.55;;;22.50;99.90;;;;;;5031365;28;20051;-45
2023/07/15 20:02:16;;;;;;;6.38;4.85;;;22.40;99.90;;;;;;5030755;28;20021;-46
2023/07/15 20:04:42;;;;;;;7.57;4.93;;;22.40;99.90;;;;;;5034795;28;20032;-44
2023/07/15 20:07:07;;;;;;;8.15;4.53;;;22.30;99.90;;;;;;5050763;28;20075;-44
2023/07/15 20:09:33;;;;;;;8.13;4.95;;;22.30;99.90;;;;;;5049233;28;20017;-44
2023/07/15 20:11:58;;;;;;;8.05;4.80;;;22.30;99.90;;;;;;5035377;28;20032;-45
2023/07/15 20:14:24;;;;;;;8.15;4.45;;;22.30;99.90;;;;;;5031222;28;20025;-46
2023/07/15 20:16:50;;;;;;;8.85;4.72;;;22.30;99.90;;;;;;5031309;28;20025;-45
2023/07/15 20:19:16;;;;;;;8.50;5.10;;;22.30;99.90;;;;;;5030629;28;20026;-45
2023/07/15 20:21:42;;;;;;;9.77;5.13;;;22.30;99.90;;;;;;5030290;28;20021;-45
2023/07/15 20:24:07;;;;;;;8.98;4.05;;;22.30;99.90;;;;;;5046592;28;20100;-43
2023/07/15 20:26:33;;;;;;;8.38;4.80;;;22.30;99.90;;;;;;5038382;28;20490;-43
2023/07/15 20:28:58;;;;;;;6.60;4.30;;;22.30;99.90;;;;;;5029343;28;20041;-45
2023/07/15 20:31:24;;;;;;;6.38;4.15;;;22.40;99.90;;;;;;5038087;28;20048;-46
2023/07/15 20:33:49;;;;;;;8.85;4.50;;;22.40;99.90;;;;;;5043798;28;20059;-44
2023/07/15 20:36:15;;;;;;;8.27;4.53;;;22.40;99.90;;;;;;5028643;28;20104;-46
2023/07/15 20:38:40;;;;;;;7.80;4.03;;;22.40;99.90;;;;;;5048738;28;20029;-47
2023/07/15 20:41:06;;;;;;;8.82;4.57;;;22.30;99.90;;;;;;5032334;28;20071;-47
2023/07/15 20:43:32;;;;;;;6.25;4.28;;;22.30;99.90;;;;;;5029856;28;20029;-48
2023/07/15 20:45:57;;;;;;;9.02;5.10;;;22.30;99.90;;;;;;5030650;28;20544;-52
2023/07/15 20:48:23;;;;;;;9.95;4.40;;;22.30;99.90;;;;;;5030856;28;20030;-49
2023/07/15 20:50:48;;;;;;;7.22;4.47;;;22.30;99.90;;;;;;5029933;28;20061;-49
2023/07/15 20:53:14;;;;;;;7.80;4.47;;;22.30;99.90;;;;;;5029209;28;20371;-50
2023/07/15 20:55:41;;;;;;;5.65;4.07;;;22.30;99.90;;;;;;5029365;28;20469;-49
2023/07/15 20:58:07;;;;;;;7.97;4.18;;;22.30;99.90;;;;;;5029355;28;20047;-49
2023/07/15 21:00:32;;;;;;;5.65;4.32;;;22.30;99.90;;;;;;5027875;28;20035;-48
2023/07/15 21:02:58;;;;;;;5.65;4.38;;;22.30;99.90;;;;;;5029080;28;20116;-48
2023/07/15 21:05:23;;;;;;;5.53;4.32;;;22.30;99.90;;;;;;5029225;28;20195;-47
2023/07/15 21:07:49;;;;;;;7.82;4.57;;;22.30;99.90;;;;;;5029239;28;20029;-49
2023/07/15 21:10:14;;;;;;;5.93;4.15;;;22.30;99.90;;;;;;5044288;28;20029;-47
2023/07/15 21:12:40;;;;;;;7.00;4.22;;;22.30;99.90;;;;;;5029851;28;20060;-47
2023/07/15 21:15:06;;;;;;;6.05;4.00;;;22.30;99.90;;;;;;5029885;28;20152;-49
2023/07/15 21:17:32;;;;;;;5.45;4.43;;;22.20;99.90;;;;;;5029806;28;20099;-48
2023/07/15 21:19:57;;;;;;;6.00;4.47;;;22.20;99.90;;;;;;5029927;28;20029;-49
2023/07/15 21:22:23;;;;;;;7.07;4.28;;;22.20;99.90;;;;;;5030027;28;20057;-48
2023/07/15 21:24:48;;;;;;;7.07;3.90;;;22.20;99.90;;;;;;5030091;28;20040;-48